sensor_id;sensor_type;location;lat;lon;timestamp;temperature;humidity
46754;DHT22;32500;50.620;3.400;2022-09-13T00:00:18;24.80;58.00
46754;DHT22;32500;50.620;3.400;2022-09-13T00:02:44;24.80;58.10
46754;DHT22;32500;50.620;3.400;2022-09-13T00:05:10;24.80;58.10
46754;DHT22;32500;50.620;3.400;2022-09-13T00:07:35;24.80;58.00
46754;DHT22;32500;50.620;3.400;2022-09-13T00:10:01;24.80;58.00
46754;DHT22;32500;50.620;3.400;2022-09-13T00:12:27;24.80;58.00
46754;DHT22;32500;50.620;3.400;2022-09-13T00:14:52;24.80;58.00
46754;DHT22;32500;50.620;3.400;2022-09-13T00:17:18;24.80;58.10
46754;DHT22;32500;50.620;3.400;2022-09-13T00:19:44;24.80;58.00
46754;DHT22;32500;50.620;3.400;2022-09-13T00:22:09;24.80;58.00
46754;DHT22;32500;50.620;3.400;2022-09-13T00:24:35;24.80;58.00
46754;DHT22;32500;50.620;3.400;2022-09-13T00:27:01;24.80;58.00
46754;DHT22;32500;50.620;3.400;2022-09-13T00:29:27;24.80;58.50
46754;DHT22;32500;50.620;3.400;2022-09-13T00:31:53;24.80;58.00
46754;DHT22;32500;50.620;3.400;2022-09-13T00:34:19;24.80;58.00
46754;DHT22;32500;50.620;3.400;2022-09-13T00:36:45;24.80;58.10
46754;DHT22;32500;50.620;3.400;2022-09-13T00:39:11;24.80;58.00
46754;DHT22;32500;50.620;3.400;2022-09-13T00:41:37;24.80;58.10
46754;DHT22;32500;50.620;3.400;2022-09-13T00:44:03;24.80;58.10
46754;DHT22;32500;50.620;3.400;2022-09-13T00:51:37;24.70;58.20
46754;DHT22;32500;50.620;3.400;2022-09-13T00:54:03;24.70;58.20
46754;DHT22;32500;50.620;3.400;2022-09-13T00:56:31;24.80;58.30
46754;DHT22;32500;50.620;3.400;2022-09-13T00:59:15;24.70;58.30
46754;DHT22;32500;50.620;3.400;2022-09-13T01:01:47;24.70;58.20
46754;DHT22;32500;50.620;3.400;2022-09-13T01:04:14;24.80;58.20
46754;DHT22;32500;50.620;3.400;2022-09-13T01:06:41;24.80;58.20
46754;DHT22;32500;50.620;3.400;2022-09-13T01:09:07;24.80;58.20
46754;DHT22;32500;50.620;3.400;2022-09-13T01:14:08;24.70;58.30
46754;DHT22;32500;50.620;3.400;2022-09-13T01:16:34;24.70;58.40
46754;DHT22;32500;50.620;3.400;2022-09-13T01:19:00;24.70;58.50
46754;DHT22;32500;50.620;3.400;2022-09-13T01:27:17;24.70;58.50
46754;DHT22;32500;50.620;3.400;2022-09-13T01:30:21;24.70;58.50
46754;DHT22;32500;50.620;3.400;2022-09-13T01:51:29;24.70;58.50
46754;DHT22;32500;50.620;3.400;2022-09-13T01:56:35;24.70;58.60
46754;DHT22;32500;50.620;3.400;2022-09-13T01:59:45;24.70;58.60
46754;DHT22;32500;50.620;3.400;2022-09-13T02:02:07;24.70;58.60
46754;DHT22;32500;50.620;3.400;2022-09-13T02:04:45;24.60;58.70
46754;DHT22;32500;50.620;3.400;2022-09-13T02:07:21;24.70;58.70
46754;DHT22;32500;50.620;3.400;2022-09-13T02:09:56;24.70;58.70
46754;DHT22;32500;50.620;3.400;2022-09-13T02:12:25;24.70;58.70
46754;DHT22;32500;50.620;3.400;2022-09-13T02:15:07;24.70;58.70
46754;DHT22;32500;50.620;3.400;2022-09-13T02:17:38;24.60;58.80
46754;DHT22;32500;50.620;3.400;2022-09-13T02:20:11;24.60;58.80
46754;DHT22;32500;50.620;3.400;2022-09-13T02:22:41;24.60;58.70
46754;DHT22;32500;50.620;3.400;2022-09-13T02:25:16;24.60;58.70
46754;DHT22;32500;50.620;3.400;2022-09-13T02:27:46;24.60;58.80
46754;DHT22;32500;50.620;3.400;2022-09-13T02:30:14;24.60;58.80
46754;DHT22;32500;50.620;3.400;2022-09-13T02:32:56;24.60;58.80
46754;DHT22;32500;50.620;3.400;2022-09-13T02:35:34;24.60;58.90
46754;DHT22;32500;50.620;3.400;2022-09-13T02:38:07;24.60;58.90
46754;DHT22;32500;50.620;3.400;2022-09-13T02:40:39;24.60;58.80
46754;DHT22;32500;50.620;3.400;2022-09-13T02:43:19;24.60;58.80
46754;DHT22;32500;50.620;3.400;2022-09-13T02:45:59;24.60;58.90
46754;DHT22;32500;50.620;3.400;2022-09-13T02:51:44;24.60;59.10
46754;DHT22;32500;50.620;3.400;2022-09-13T02:54:29;24.60;59.10
46754;DHT22;32500;50.620;3.400;2022-09-13T02:57:20;24.60;59.00
46754;DHT22;32500;50.620;3.400;2022-09-13T02:59:49;24.50;59.00
46754;DHT22;32500;50.620;3.400;2022-09-13T03:02:18;24.60;59.00
46754;DHT22;32500;50.620;3.400;2022-09-13T03:04:45;24.60;58.90
46754;DHT22;32500;50.620;3.400;2022-09-13T03:07:12;24.60;58.90
46754;DHT22;32500;50.620;3.400;2022-09-13T03:09:52;24.60;58.90
46754;DHT22;32500;50.620;3.400;2022-09-13T03:18:22;24.50;59.00
46754;DHT22;32500;50.620;3.400;2022-09-13T03:24:20;24.50;58.90
46754;DHT22;32500;50.620;3.400;2022-09-13T03:26:55;24.50;59.00
46754;DHT22;32500;50.620;3.400;2022-09-13T03:35:09;24.60;59.00
46754;DHT22;32500;50.620;3.400;2022-09-13T03:37:56;24.50;59.00
46754;DHT22;32500;50.620;3.400;2022-09-13T03:45:34;24.50;59.00
46754;DHT22;32500;50.620;3.400;2022-09-13T03:48:02;24.50;59.10
46754;DHT22;32500;50.620;3.400;2022-09-13T03:50:29;24.50;59.10
46754;DHT22;32500;50.620;3.400;2022-09-13T03:53:00;24.50;59.10
46754;DHT22;32500;50.620;3.400;2022-09-13T03:55:28;24.50;59.10
46754;DHT22;32500;50.620;3.400;2022-09-13T03:57:55;24.50;59.10
46754;DHT22;32500;50.620;3.400;2022-09-13T04:00:21;24.50;59.10
46754;DHT22;32500;50.620;3.400;2022-09-13T04:02:47;24.50;59.20
46754;DHT22;32500;50.620;3.400;2022-09-13T04:05:12;24.40;59.20
46754;DHT22;32500;50.620;3.400;2022-09-13T04:07:38;24.50;59.30
46754;DHT22;32500;50.620;3.400;2022-09-13T04:10:04;24.50;59.30
46754;DHT22;32500;50.620;3.400;2022-09-13T04:12:30;24.40;59.30
46754;DHT22;32500;50.620;3.400;2022-09-13T04:14:56;24.50;59.40
46754;DHT22;32500;50.620;3.400;2022-09-13T04:17:22;24.40;59.50
46754;DHT22;32500;50.620;3.400;2022-09-13T04:19:48;24.40;59.50
46754;DHT22;32500;50.620;3.400;2022-09-13T04:22:14;24.40;59.50
46754;DHT22;32500;50.620;3.400;2022-09-13T04:24:40;24.40;59.40
46754;DHT22;32500;50.620;3.400;2022-09-13T04:27:07;24.50;59.30
46754;DHT22;32500;50.620;3.400;2022-09-13T04:29:33;24.50;59.40
46754;DHT22;32500;50.620;3.400;2022-09-13T04:31:59;24.40;59.50
46754;DHT22;32500;50.620;3.400;2022-09-13T04:34:25;24.40;59.50
46754;DHT22;32500;50.620;3.400;2022-09-13T04:36:51;24.50;59.60
46754;DHT22;32500;50.620;3.400;2022-09-13T04:39:18;24.50;59.50
46754;DHT22;32500;50.620;3.400;2022-09-13T04:41:45;24.50;59.60
46754;DHT22;32500;50.620;3.400;2022-09-13T04:44:14;24.40;59.50
46754;DHT22;32500;50.620;3.400;2022-09-13T04:46:39;24.40;59.60
46754;DHT22;32500;50.620;3.400;2022-09-13T04:49:06;24.40;59.60
46754;DHT22;32500;50.620;3.400;2022-09-13T04:51:33;24.50;59.60
46754;DHT22;32500;50.620;3.400;2022-09-13T04:53:59;24.50;59.60
46754;DHT22;32500;50.620;3.400;2022-09-13T04:56:25;24.40;59.60
46754;DHT22;32500;50.620;3.400;2022-09-13T04:58:51;24.40;59.50
46754;DHT22;32500;50.620;3.400;2022-09-13T05:01:17;24.40;59.60
46754;DHT22;32500;50.620;3.400;2022-09-13T05:03:43;24.50;59.70
46754;DHT22;32500;50.620;3.400;2022-09-13T05:06:11;24.50;60.00
46754;DHT22;32500;50.620;3.400;2022-09-13T05:08:37;24.40;61.30
46754;DHT22;32500;50.620;3.400;2022-09-13T05:11:04;24.50;60.90
46754;DHT22;32500;50.620;3.400;2022-09-13T05:13:30;24.40;61.30
46754;DHT22;32500;50.620;3.400;2022-09-13T05:15:58;24.50;61.50
46754;DHT22;32500;50.620;3.400;2022-09-13T05:18:32;24.40;61.40
46754;DHT22;32500;50.620;3.400;2022-09-13T05:20:59;24.40;61.50
46754;DHT22;32500;50.620;3.400;2022-09-13T05:23:26;24.30;61.40
46754;DHT22;32500;50.620;3.400;2022-09-13T05:25:53;24.40;61.40
46754;DHT22;32500;50.620;3.400;2022-09-13T05:28:20;24.40;61.40
46754;DHT22;32500;50.620;3.400;2022-09-13T05:31:07;24.40;61.50
46754;DHT22;32500;50.620;3.400;2022-09-13T05:33:36;24.40;61.80
46754;DHT22;32500;50.620;3.400;2022-09-13T05:36:03;24.40;61.70
46754;DHT22;32500;50.620;3.400;2022-09-13T05:38:29;24.40;61.30
46754;DHT22;32500;50.620;3.400;2022-09-13T05:40:57;24.50;61.30
46754;DHT22;32500;50.620;3.400;2022-09-13T05:43:24;24.40;61.30
46754;DHT22;32500;50.620;3.400;2022-09-13T05:45:50;24.40;61.30
46754;DHT22;32500;50.620;3.400;2022-09-13T05:48:15;24.40;61.70
46754;DHT22;32500;50.620;3.400;2022-09-13T05:50:41;24.40;61.40
46754;DHT22;32500;50.620;3.400;2022-09-13T05:53:07;24.40;61.20
46754;DHT22;32500;50.620;3.400;2022-09-13T05:55:33;24.40;61.30
46754;DHT22;32500;50.620;3.400;2022-09-13T05:58:00;24.40;61.30
46754;DHT22;32500;50.620;3.400;2022-09-13T06:00:26;24.40;61.20
46754;DHT22;32500;50.620;3.400;2022-09-13T06:02:52;24.40;61.30
46754;DHT22;32500;50.620;3.400;2022-09-13T06:05:18;24.40;61.10
46754;DHT22;32500;50.620;3.400;2022-09-13T06:07:44;24.40;60.40
46754;DHT22;32500;50.620;3.400;2022-09-13T06:10:10;24.30;61.10
46754;DHT22;32500;50.620;3.400;2022-09-13T06:12:36;24.40;61.10
46754;DHT22;32500;50.620;3.400;2022-09-13T06:15:02;24.40;61.10
46754;DHT22;32500;50.620;3.400;2022-09-13T06:17:28;24.40;61.20
46754;DHT22;32500;50.620;3.400;2022-09-13T06:19:54;24.40;61.10
46754;DHT22;32500;50.620;3.400;2022-09-13T06:22:21;24.40;61.10
46754;DHT22;32500;50.620;3.400;2022-09-13T06:24:47;24.30;61.00
46754;DHT22;32500;50.620;3.400;2022-09-13T06:27:12;24.30;61.10
46754;DHT22;32500;50.620;3.400;2022-09-13T06:29:38;24.30;61.10
46754;DHT22;32500;50.620;3.400;2022-09-13T06:32:04;24.30;61.10
46754;DHT22;32500;50.620;3.400;2022-09-13T06:34:29;24.40;61.20
46754;DHT22;32500;50.620;3.400;2022-09-13T06:36:56;24.30;61.10
46754;DHT22;32500;50.620;3.400;2022-09-13T06:39:21;24.30;61.10
46754;DHT22;32500;50.620;3.400;2022-09-13T06:41:47;24.30;61.10
46754;DHT22;32500;50.620;3.400;2022-09-13T06:44:13;24.30;61.10
46754;DHT22;32500;50.620;3.400;2022-09-13T06:46:38;24.30;61.10
46754;DHT22;32500;50.620;3.400;2022-09-13T06:49:05;24.30;61.10
46754;DHT22;32500;50.620;3.400;2022-09-13T06:51:33;24.30;61.10
46754;DHT22;32500;50.620;3.400;2022-09-13T06:53:59;24.30;60.90
46754;DHT22;32500;50.620;3.400;2022-09-13T06:56:27;24.30;60.90
46754;DHT22;32500;50.620;3.400;2022-09-13T06:58:58;24.30;61.00
46754;DHT22;32500;50.620;3.400;2022-09-13T07:04:02;24.30;60.90
46754;DHT22;32500;50.620;3.400;2022-09-13T07:06:30;24.20;61.00
46754;DHT22;32500;50.620;3.400;2022-09-13T07:08:57;24.30;61.10
46754;DHT22;32500;50.620;3.400;2022-09-13T07:11:34;24.30;61.00
46754;DHT22;32500;50.620;3.400;2022-09-13T07:14:00;24.30;60.90
46754;DHT22;32500;50.620;3.400;2022-09-13T07:16:30;24.30;61.00
46754;DHT22;32500;50.620;3.400;2022-09-13T07:19:02;24.30;61.00
46754;DHT22;32500;50.620;3.400;2022-09-13T07:21:30;24.30;61.00
46754;DHT22;32500;50.620;3.400;2022-09-13T07:23:57;24.30;61.00
46754;DHT22;32500;50.620;3.400;2022-09-13T07:26:24;24.20;61.10
46754;DHT22;32500;50.620;3.400;2022-09-13T07:28:54;24.30;61.10
46754;DHT22;32500;50.620;3.400;2022-09-13T07:31:23;24.30;61.00
46754;DHT22;32500;50.620;3.400;2022-09-13T07:33:53;24.30;60.90
46754;DHT22;32500;50.620;3.400;2022-09-13T07:36:20;24.30;60.90
46754;DHT22;32500;50.620;3.400;2022-09-13T07:38:46;24.40;60.90
46754;DHT22;32500;50.620;3.400;2022-09-13T07:41:14;24.40;60.90
46754;DHT22;32500;50.620;3.400;2022-09-13T07:43:41;24.40;60.80
46754;DHT22;32500;50.620;3.400;2022-09-13T07:46:09;24.40;60.70
46754;DHT22;32500;50.620;3.400;2022-09-13T07:48:37;24.30;60.60
46754;DHT22;32500;50.620;3.400;2022-09-13T07:51:11;24.40;60.60
46754;DHT22;32500;50.620;3.400;2022-09-13T07:53:38;24.40;60.70
46754;DHT22;32500;50.620;3.400;2022-09-13T07:58:35;24.40;60.50
46754;DHT22;32500;50.620;3.400;2022-09-13T08:01:12;24.40;60.50
46754;DHT22;32500;50.620;3.400;2022-09-13T08:03:39;24.40;60.50
46754;DHT22;32500;50.620;3.400;2022-09-13T08:06:05;24.40;60.60
46754;DHT22;32500;50.620;3.400;2022-09-13T08:08:31;24.40;60.50
46754;DHT22;32500;50.620;3.400;2022-09-13T08:10:58;24.40;60.50
46754;DHT22;32500;50.620;3.400;2022-09-13T08:13:24;24.40;60.50
46754;DHT22;32500;50.620;3.400;2022-09-13T08:15:50;24.40;60.50
46754;DHT22;32500;50.620;3.400;2022-09-13T08:18:17;24.40;60.50
46754;DHT22;32500;50.620;3.400;2022-09-13T08:20:42;24.40;60.40
46754;DHT22;32500;50.620;3.400;2022-09-13T08:23:10;24.40;60.50
46754;DHT22;32500;50.620;3.400;2022-09-13T08:25:37;24.40;60.40
46754;DHT22;32500;50.620;3.400;2022-09-13T08:28:14;24.40;60.40
46754;DHT22;32500;50.620;3.400;2022-09-13T08:30:40;24.40;60.30
46754;DHT22;32500;50.620;3.400;2022-09-13T08:33:08;24.50;60.40
46754;DHT22;32500;50.620;3.400;2022-09-13T08:35:34;24.50;60.40
46754;DHT22;32500;50.620;3.400;2022-09-13T08:38:00;24.50;60.40
46754;DHT22;32500;50.620;3.400;2022-09-13T08:40:30;24.50;60.30
46754;DHT22;32500;50.620;3.400;2022-09-13T08:46:20;24.50;60.40
46754;DHT22;32500;50.620;3.400;2022-09-13T08:48:50;24.50;60.40
46754;DHT22;32500;50.620;3.400;2022-09-13T08:54:00;24.50;60.40
46754;DHT22;32500;50.620;3.400;2022-09-13T08:59:32;24.50;60.40
46754;DHT22;32500;50.620;3.400;2022-09-13T09:05:14;24.50;60.40
46754;DHT22;32500;50.620;3.400;2022-09-13T09:08:02;24.50;60.40
46754;DHT22;32500;50.620;3.400;2022-09-13T09:10:40;24.50;60.40
46754;DHT22;32500;50.620;3.400;2022-09-13T09:13:36;24.50;60.30
46754;DHT22;32500;50.620;3.400;2022-09-13T09:18:46;24.50;60.20
46754;DHT22;32500;50.620;3.400;2022-09-13T09:21:16;24.60;60.20
46754;DHT22;32500;50.620;3.400;2022-09-13T09:23:50;24.60;60.20
46754;DHT22;32500;50.620;3.400;2022-09-13T09:26:24;24.60;60.20
46754;DHT22;32500;50.620;3.400;2022-09-13T09:29:25;24.60;60.20
46754;DHT22;32500;50.620;3.400;2022-09-13T09:37:25;24.60;60.20
46754;DHT22;32500;50.620;3.400;2022-09-13T09:39:53;24.60;60.20
46754;DHT22;32500;50.620;3.400;2022-09-13T09:42:26;24.60;60.20
46754;DHT22;32500;50.620;3.400;2022-09-13T09:44:59;24.60;60.10
46754;DHT22;32500;50.620;3.400;2022-09-13T09:47:28;24.60;60.10
46754;DHT22;32500;50.620;3.400;2022-09-13T09:50:13;24.60;60.00
46754;DHT22;32500;50.620;3.400;2022-09-13T09:53:07;24.70;60.00
46754;DHT22;32500;50.620;3.400;2022-09-13T09:55:57;24.70;60.00
46754;DHT22;32500;50.620;3.400;2022-09-13T09:58:44;24.70;60.00
46754;DHT22;32500;50.620;3.400;2022-09-13T10:01:31;24.70;59.80
46754;DHT22;32500;50.620;3.400;2022-09-13T10:06:37;24.80;59.70
46754;DHT22;32500;50.620;3.400;2022-09-13T10:09:06;24.80;59.70
46754;DHT22;32500;50.620;3.400;2022-09-13T10:19:31;24.80;60.10
46754;DHT22;32500;50.620;3.400;2022-09-13T10:22:09;24.70;59.70
46754;DHT22;32500;50.620;3.400;2022-09-13T10:24:35;24.70;59.80
46754;DHT22;32500;50.620;3.400;2022-09-13T10:27:01;24.80;59.90
46754;DHT22;32500;50.620;3.400;2022-09-13T10:29:29;24.80;59.90
46754;DHT22;32500;50.620;3.400;2022-09-13T10:31:56;24.80;59.80
46754;DHT22;32500;50.620;3.400;2022-09-13T10:34:32;24.80;59.80
46754;DHT22;32500;50.620;3.400;2022-09-13T10:37:15;24.80;59.90
46754;DHT22;32500;50.620;3.400;2022-09-13T10:40:00;24.70;59.80
46754;DHT22;32500;50.620;3.400;2022-09-13T10:42:28;24.80;59.80
46754;DHT22;32500;50.620;3.400;2022-09-13T10:44:56;24.80;59.80
46754;DHT22;32500;50.620;3.400;2022-09-13T10:47:25;24.80;59.80
46754;DHT22;32500;50.620;3.400;2022-09-13T10:49:54;24.80;59.90
46754;DHT22;32500;50.620;3.400;2022-09-13T10:54:48;24.80;59.90
46754;DHT22;32500;50.620;3.400;2022-09-13T10:57:35;24.70;59.90
46754;DHT22;32500;50.620;3.400;2022-09-13T11:00:05;24.70;60.00
46754;DHT22;32500;50.620;3.400;2022-09-13T11:03:03;24.80;60.00
46754;DHT22;32500;50.620;3.400;2022-09-13T11:11:14;24.80;59.90
46754;DHT22;32500;50.620;3.400;2022-09-13T11:16:58;24.80;60.00
46754;DHT22;32500;50.620;3.400;2022-09-13T11:19:35;24.70;60.00
46754;DHT22;32500;50.620;3.400;2022-09-13T11:43:46;24.90;59.60
46754;DHT22;32500;50.620;3.400;2022-09-13T11:46:45;24.90;59.50
46754;DHT22;32500;50.620;3.400;2022-09-13T11:52:10;25.00;59.50
46754;DHT22;32500;50.620;3.400;2022-09-13T11:57:33;25.00;59.60
46754;DHT22;32500;50.620;3.400;2022-09-13T12:02:46;25.00;59.70
46754;DHT22;32500;50.620;3.400;2022-09-13T12:05:26;25.00;59.80
46754;DHT22;32500;50.620;3.400;2022-09-13T12:10:57;24.90;59.70
46754;DHT22;32500;50.620;3.400;2022-09-13T12:13:30;25.00;59.80
46754;DHT22;32500;50.620;3.400;2022-09-13T12:16:01;25.00;59.80
46754;DHT22;32500;50.620;3.400;2022-09-13T12:18:31;25.00;59.80
46754;DHT22;32500;50.620;3.400;2022-09-13T12:21:08;25.00;59.80
46754;DHT22;32500;50.620;3.400;2022-09-13T12:23:49;25.00;59.80
46754;DHT22;32500;50.620;3.400;2022-09-13T12:26:56;25.00;59.80
46754;DHT22;32500;50.620;3.400;2022-09-13T12:29:19;25.00;59.80
46754;DHT22;32500;50.620;3.400;2022-09-13T12:31:46;25.00;59.80
46754;DHT22;32500;50.620;3.400;2022-09-13T12:34:22;25.00;59.70
46754;DHT22;32500;50.620;3.400;2022-09-13T12:36:56;25.00;59.80
46754;DHT22;32500;50.620;3.400;2022-09-13T12:45:27;25.00;59.80
46754;DHT22;32500;50.620;3.400;2022-09-13T12:54:26;25.00;59.90
46754;DHT22;32500;50.620;3.400;2022-09-13T13:05:26;25.00;60.00
46754;DHT22;32500;50.620;3.400;2022-09-13T13:07:56;25.10;59.90
46754;DHT22;32500;50.620;3.400;2022-09-13T13:10:31;25.00;59.70
46754;DHT22;32500;50.620;3.400;2022-09-13T13:13:22;25.00;59.70
46754;DHT22;32500;50.620;3.400;2022-09-13T13:18:43;25.00;59.80
46754;DHT22;32500;50.620;3.400;2022-09-13T13:34:30;25.00;59.80
46754;DHT22;32500;50.620;3.400;2022-09-13T13:57:50;25.00;59.80
46754;DHT22;32500;50.620;3.400;2022-09-13T14:00:27;25.00;59.80
46754;DHT22;32500;50.620;3.400;2022-09-13T14:18:54;25.00;59.90
46754;DHT22;32500;50.620;3.400;2022-09-13T14:21:29;25.00;59.90
46754;DHT22;32500;50.620;3.400;2022-09-13T14:26:34;25.00;60.00
46754;DHT22;32500;50.620;3.400;2022-09-13T14:29:00;25.00;60.00
46754;DHT22;32500;50.620;3.400;2022-09-13T14:31:25;25.00;60.00
46754;DHT22;32500;50.620;3.400;2022-09-13T14:33:51;25.00;60.00
46754;DHT22;32500;50.620;3.400;2022-09-13T14:36:21;25.00;60.00
46754;DHT22;32500;50.620;3.400;2022-09-13T14:38:53;25.00;60.00
46754;DHT22;32500;50.620;3.400;2022-09-13T14:41:29;25.00;60.00
46754;DHT22;32500;50.620;3.400;2022-09-13T14:44:18;25.00;60.00
46754;DHT22;32500;50.620;3.400;2022-09-13T14:46:50;25.00;60.00
46754;DHT22;32500;50.620;3.400;2022-09-13T14:49:25;24.90;60.00
46754;DHT22;32500;50.620;3.400;2022-09-13T14:52:15;25.20;59.80
46754;DHT22;32500;50.620;3.400;2022-09-13T14:54:47;25.30;59.40
46754;DHT22;32500;50.620;3.400;2022-09-13T14:57:27;25.40;59.30
46754;DHT22;32500;50.620;3.400;2022-09-13T14:59:57;25.50;59.30
46754;DHT22;32500;50.620;3.400;2022-09-13T15:02:29;25.40;59.10
46754;DHT22;32500;50.620;3.400;2022-09-13T15:04:57;25.50;59.20
46754;DHT22;32500;50.620;3.400;2022-09-13T15:09:56;25.50;59.20
46754;DHT22;32500;50.620;3.400;2022-09-13T15:12:25;25.50;59.10
46754;DHT22;32500;50.620;3.400;2022-09-13T15:17:54;25.50;59.10
46754;DHT22;32500;50.620;3.400;2022-09-13T15:20:21;25.50;59.10
46754;DHT22;32500;50.620;3.400;2022-09-13T15:22:48;25.60;59.10
46754;DHT22;32500;50.620;3.400;2022-09-13T15:25:20;25.60;59.20
46754;DHT22;32500;50.620;3.400;2022-09-13T15:27:47;25.50;59.10
46754;DHT22;32500;50.620;3.400;2022-09-13T15:30:22;25.60;59.20
46754;DHT22;32500;50.620;3.400;2022-09-13T15:32:48;25.40;59.30
46754;DHT22;32500;50.620;3.400;2022-09-13T15:35:23;25.20;59.70
46754;DHT22;32500;50.620;3.400;2022-09-13T15:37:59;25.10;59.90
46754;DHT22;32500;50.620;3.400;2022-09-13T15:40:28;25.10;60.00
46754;DHT22;32500;50.620;3.400;2022-09-13T15:42:54;25.00;60.00
46754;DHT22;32500;50.620;3.400;2022-09-13T15:45:21;25.00;60.10
46754;DHT22;32500;50.620;3.400;2022-09-13T15:47:48;25.00;60.00
46754;DHT22;32500;50.620;3.400;2022-09-13T15:50:20;25.00;60.10
46754;DHT22;32500;50.620;3.400;2022-09-13T15:52:46;25.00;60.10
46754;DHT22;32500;50.620;3.400;2022-09-13T15:55:12;24.90;60.20
46754;DHT22;32500;50.620;3.400;2022-09-13T15:57:38;24.90;60.30
46754;DHT22;32500;50.620;3.400;2022-09-13T16:00:04;24.90;60.40
46754;DHT22;32500;50.620;3.400;2022-09-13T16:02:32;24.90;60.40
46754;DHT22;32500;50.620;3.400;2022-09-13T16:05:00;24.90;60.40
46754;DHT22;32500;50.620;3.400;2022-09-13T16:07:26;24.90;60.40
46754;DHT22;32500;50.620;3.400;2022-09-13T16:09:52;24.90;60.30
46754;DHT22;32500;50.620;3.400;2022-09-13T16:12:18;25.10;60.30
46754;DHT22;32500;50.620;3.400;2022-09-13T16:14:46;25.00;60.90
46754;DHT22;32500;50.620;3.400;2022-09-13T16:17:16;25.00;61.50
46754;DHT22;32500;50.620;3.400;2022-09-13T16:19:43;24.90;61.80
46754;DHT22;32500;50.620;3.400;2022-09-13T16:22:09;25.00;61.90
46754;DHT22;32500;50.620;3.400;2022-09-13T16:24:36;25.00;61.60
46754;DHT22;32500;50.620;3.400;2022-09-13T16:27:02;25.00;61.90
46754;DHT22;32500;50.620;3.400;2022-09-13T16:29:28;25.00;61.50
46754;DHT22;32500;50.620;3.400;2022-09-13T16:31:54;24.90;61.80
46754;DHT22;32500;50.620;3.400;2022-09-13T16:34:19;24.90;62.00
46754;DHT22;32500;50.620;3.400;2022-09-13T16:36:46;25.00;61.80
46754;DHT22;32500;50.620;3.400;2022-09-13T16:39:11;24.90;61.60
46754;DHT22;32500;50.620;3.400;2022-09-13T16:41:38;24.90;61.60
46754;DHT22;32500;50.620;3.400;2022-09-13T16:44:04;24.80;61.60
46754;DHT22;32500;50.620;3.400;2022-09-13T16:46:30;24.80;61.80
46754;DHT22;32500;50.620;3.400;2022-09-13T16:48:56;24.80;61.80
46754;DHT22;32500;50.620;3.400;2022-09-13T16:51:23;24.80;61.90
46754;DHT22;32500;50.620;3.400;2022-09-13T16:53:50;24.80;61.80
46754;DHT22;32500;50.620;3.400;2022-09-13T16:56:18;24.80;61.90
46754;DHT22;32500;50.620;3.400;2022-09-13T16:58:45;24.90;62.00
46754;DHT22;32500;50.620;3.400;2022-09-13T17:01:13;24.80;61.90
46754;DHT22;32500;50.620;3.400;2022-09-13T17:03:39;24.80;62.00
46754;DHT22;32500;50.620;3.400;2022-09-13T17:06:08;24.80;62.10
46754;DHT22;32500;50.620;3.400;2022-09-13T17:08:35;24.80;62.10
46754;DHT22;32500;50.620;3.400;2022-09-13T17:11:11;24.80;62.10
46754;DHT22;32500;50.620;3.400;2022-09-13T17:13:38;24.80;62.10
46754;DHT22;32500;50.620;3.400;2022-09-13T17:16:19;24.80;62.10
46754;DHT22;32500;50.620;3.400;2022-09-13T17:18:45;24.90;62.00
46754;DHT22;32500;50.620;3.400;2022-09-13T17:21:11;24.80;61.90
46754;DHT22;32500;50.620;3.400;2022-09-13T17:23:36;24.80;61.90
46754;DHT22;32500;50.620;3.400;2022-09-13T17:26:02;24.80;61.90
46754;DHT22;32500;50.620;3.400;2022-09-13T17:28:28;24.80;61.90
46754;DHT22;32500;50.620;3.400;2022-09-13T17:30:53;24.90;62.30
46754;DHT22;32500;50.620;3.400;2022-09-13T17:33:19;24.90;63.00
46754;DHT22;32500;50.620;3.400;2022-09-13T17:35:44;24.90;62.80
46754;DHT22;32500;50.620;3.400;2022-09-13T17:38:10;24.90;63.50
46754;DHT22;32500;50.620;3.400;2022-09-13T17:40:36;25.00;63.30
46754;DHT22;32500;50.620;3.400;2022-09-13T17:43:02;25.00;63.10
46754;DHT22;32500;50.620;3.400;2022-09-13T17:45:28;25.00;63.20
46754;DHT22;32500;50.620;3.400;2022-09-13T17:47:54;25.00;63.30
46754;DHT22;32500;50.620;3.400;2022-09-13T17:50:21;25.00;63.20
46754;DHT22;32500;50.620;3.400;2022-09-13T17:52:47;25.00;63.70
46754;DHT22;32500;50.620;3.400;2022-09-13T17:55:12;25.00;63.80
46754;DHT22;32500;50.620;3.400;2022-09-13T17:57:38;25.10;63.70
46754;DHT22;32500;50.620;3.400;2022-09-13T18:00:06;25.20;63.50
46754;DHT22;32500;50.620;3.400;2022-09-13T18:02:34;25.30;64.00
46754;DHT22;32500;50.620;3.400;2022-09-13T18:05:00;25.30;63.50
46754;DHT22;32500;50.620;3.400;2022-09-13T18:07:26;25.40;63.50
46754;DHT22;32500;50.620;3.400;2022-09-13T18:09:51;25.40;63.30
46754;DHT22;32500;50.620;3.400;2022-09-13T18:12:17;25.40;63.20
46754;DHT22;32500;50.620;3.400;2022-09-13T18:14:43;25.40;63.10
46754;DHT22;32500;50.620;3.400;2022-09-13T18:17:08;25.30;63.10
46754;DHT22;32500;50.620;3.400;2022-09-13T18:19:38;25.30;63.20
46754;DHT22;32500;50.620;3.400;2022-09-13T18:22:05;25.20;63.40
46754;DHT22;32500;50.620;3.400;2022-09-13T18:24:31;25.20;63.40
46754;DHT22;32500;50.620;3.400;2022-09-13T18:26:58;25.20;63.60
46754;DHT22;32500;50.620;3.400;2022-09-13T18:29:24;25.20;63.60
46754;DHT22;32500;50.620;3.400;2022-09-13T18:31:51;25.20;63.70
46754;DHT22;32500;50.620;3.400;2022-09-13T18:34:18;25.20;63.90
46754;DHT22;32500;50.620;3.400;2022-09-13T18:36:43;25.10;64.10
46754;DHT22;32500;50.620;3.400;2022-09-13T18:39:17;25.10;63.90
46754;DHT22;32500;50.620;3.400;2022-09-13T18:41:43;25.20;64.00
46754;DHT22;32500;50.620;3.400;2022-09-13T18:44:11;25.10;64.00
46754;DHT22;32500;50.620;3.400;2022-09-13T18:46:37;25.10;64.10
46754;DHT22;32500;50.620;3.400;2022-09-13T18:49:04;25.10;64.20
46754;DHT22;32500;50.620;3.400;2022-09-13T18:51:33;25.20;64.80
46754;DHT22;32500;50.620;3.400;2022-09-13T18:53:59;25.20;64.10
46754;DHT22;32500;50.620;3.400;2022-09-13T18:56:26;25.20;64.00
46754;DHT22;32500;50.620;3.400;2022-09-13T18:58:52;25.20;64.10
46754;DHT22;32500;50.620;3.400;2022-09-13T19:01:24;25.10;64.00
46754;DHT22;32500;50.620;3.400;2022-09-13T19:03:52;25.20;64.10
46754;DHT22;32500;50.620;3.400;2022-09-13T19:06:19;25.20;64.20
46754;DHT22;32500;50.620;3.400;2022-09-13T19:08:46;25.10;64.00
46754;DHT22;32500;50.620;3.400;2022-09-13T19:11:13;25.10;64.20
46754;DHT22;32500;50.620;3.400;2022-09-13T19:13:39;25.20;64.30
46754;DHT22;32500;50.620;3.400;2022-09-13T19:16:14;25.10;64.20
46754;DHT22;32500;50.620;3.400;2022-09-13T19:18:43;25.20;64.20
46754;DHT22;32500;50.620;3.400;2022-09-13T19:21:11;25.20;64.10
46754;DHT22;32500;50.620;3.400;2022-09-13T19:23:38;25.10;64.30
46754;DHT22;32500;50.620;3.400;2022-09-13T19:26:19;25.00;64.30